sensor_id;sensor_type;location;lat;lon;timestamp;pressure;altitude;pressure_sealevel;temperature;humidity
59493;BME280;45497;43.996;22.876;2022-10-31T00:00:51;101561.81;;;17.56;41.40
59493;BME280;45497;43.996;22.876;2022-10-31T00:03:17;101550.25;;;17.55;41.50
59493;BME280;45497;43.996;22.876;2022-10-31T00:05:45;101553.78;;;17.56;41.44
59493;BME280;45497;43.996;22.876;2022-10-31T00:08:11;101553.59;;;17.57;41.50
59493;BME280;45497;43.996;22.876;2022-10-31T00:10:40;101551.34;;;17.61;41.50
59493;BME280;45497;43.996;22.876;2022-10-31T00:13:07;101555.66;;;17.62;41.58
59493;BME280;45497;43.996;22.876;2022-10-31T00:15:34;101555.28;;;17.65;41.53
59493;BME280;45497;43.996;22.876;2022-10-31T00:18:01;101546.19;;;17.66;41.40
59493;BME280;45497;43.996;22.876;2022-10-31T00:20:26;101545.88;;;17.76;41.22
59493;BME280;45497;43.996;22.876;2022-10-31T00:22:52;101557.09;;;17.86;41.06
59493;BME280;45497;43.996;22.876;2022-10-31T00:25:17;101561.28;;;17.95;40.73
59493;BME280;45497;43.996;22.876;2022-10-31T00:27:45;101566.06;;;18.07;40.74
59493;BME280;45497;43.996;22.876;2022-10-31T00:30:11;101557.84;;;18.08;40.65
59493;BME280;45497;43.996;22.876;2022-10-31T00:32:36;101554.75;;;18.11;40.46
59493;BME280;45497;43.996;22.876;2022-10-31T00:35:02;101560.94;;;18.12;40.50
59493;BME280;45497;43.996;22.876;2022-10-31T00:37:28;101576.44;;;18.17;40.41
59493;BME280;45497;43.996;22.876;2022-10-31T00:39:53;101571.28;;;18.15;40.24
59493;BME280;45497;43.996;22.876;2022-10-31T00:42:18;101566.75;;;18.15;40.31
59493;BME280;45497;43.996;22.876;2022-10-31T00:44:44;101569.75;;;17.99;40.80
59493;BME280;45497;43.996;22.876;2022-10-31T00:47:09;101565.28;;;17.78;41.36
59493;BME280;45497;43.996;22.876;2022-10-31T00:49:35;101578.97;;;17.62;42.07
59493;BME280;45497;43.996;22.876;2022-10-31T00:52:00;101563.19;;;17.45;42.45
59493;BME280;45497;43.996;22.876;2022-10-31T00:54:26;101554.75;;;17.48;42.40
59493;BME280;45497;43.996;22.876;2022-10-31T00:56:51;101555.72;;;17.41;42.51
59493;BME280;45497;43.996;22.876;2022-10-31T00:59:17;101561.91;;;17.41;42.47
59493;BME280;45497;43.996;22.876;2022-10-31T01:01:42;101551.78;;;17.36;42.73
59493;BME280;45497;43.996;22.876;2022-10-31T01:04:07;101550.19;;;17.42;42.63
59493;BME280;45497;43.996;22.876;2022-10-31T01:06:33;101554.13;;;17.46;42.51
59493;BME280;45497;43.996;22.876;2022-10-31T01:08:58;101556.66;;;17.54;42.26
59493;BME280;45497;43.996;22.876;2022-10-31T01:11:24;101557.53;;;17.62;41.97
59493;BME280;45497;43.996;22.876;2022-10-31T01:13:51;101565.41;;;17.70;42.05
59493;BME280;45497;43.996;22.876;2022-10-31T01:16:19;101559.94;;;17.85;41.46
59493;BME280;45497;43.996;22.876;2022-10-31T01:18:45;101559.00;;;17.92;41.32
59493;BME280;45497;43.996;22.876;2022-10-31T01:21:14;101570.94;;;17.90;41.43
59493;BME280;45497;43.996;22.876;2022-10-31T01:23:40;101574.22;;;17.85;41.32
59493;BME280;45497;43.996;22.876;2022-10-31T01:28:44;101560.94;;;18.12;40.70
59493;BME280;45497;43.996;22.876;2022-10-31T01:31:10;101566.69;;;18.09;40.61
59493;BME280;45497;43.996;22.876;2022-10-31T01:33:36;101566.78;;;17.87;41.34
59493;BME280;45497;43.996;22.876;2022-10-31T01:36:33;101558.88;;;17.79;41.76
59493;BME280;45497;43.996;22.876;2022-10-31T01:38:59;101564.44;;;17.77;41.52
59493;BME280;45497;43.996;22.876;2022-10-31T01:41:28;101568.78;;;17.78;41.47
59493;BME280;45497;43.996;22.876;2022-10-31T01:44:00;101565.69;;;17.82;41.46
59493;BME280;45497;43.996;22.876;2022-10-31T01:46:35;101567.41;;;17.89;41.22
59493;BME280;45497;43.996;22.876;2022-10-31T01:49:05;101570.78;;;17.98;40.86
59493;BME280;45497;43.996;22.876;2022-10-31T01:51:37;101578.06;;;18.11;40.66
59493;BME280;45497;43.996;22.876;2022-10-31T01:54:09;101569.81;;;18.12;40.69
59493;BME280;45497;43.996;22.876;2022-10-31T01:56:39;101561.56;;;18.14;40.47
59493;BME280;45497;43.996;22.876;2022-10-31T01:59:08;101565.06;;;18.14;40.58
59493;BME280;45497;43.996;22.876;2022-10-31T02:01:35;101572.03;;;18.02;40.79
59493;BME280;45497;43.996;22.876;2022-10-31T02:04:01;101566.84;;;17.94;40.92
59493;BME280;45497;43.996;22.876;2022-10-31T02:06:56;101585.75;;;17.86;41.16
59493;BME280;45497;43.996;22.876;2022-10-31T02:09:24;101584.94;;;17.85;41.14
59493;BME280;45497;43.996;22.876;2022-10-31T02:11:56;101585.28;;;17.75;41.41
59493;BME280;45497;43.996;22.876;2022-10-31T02:14:24;101587.09;;;17.75;41.89
59493;BME280;45497;43.996;22.876;2022-10-31T02:16:50;101585.16;;;17.62;42.54
59493;BME280;45497;43.996;22.876;2022-10-31T02:19:26;101588.88;;;17.61;42.62
59493;BME280;45497;43.996;22.876;2022-10-31T02:24:46;101587.59;;;17.57;43.04
59493;BME280;45497;43.996;22.876;2022-10-31T02:36:12;101590.00;;;17.45;42.71
59493;BME280;45497;43.996;22.876;2022-10-31T02:38:52;101588.72;;;17.41;42.72
59493;BME280;45497;43.996;22.876;2022-10-31T02:41:48;101579.75;;;17.27;42.72
59493;BME280;45497;43.996;22.876;2022-10-31T02:44:36;101578.72;;;17.28;42.64
59493;BME280;45497;43.996;22.876;2022-10-31T02:47:08;101582.63;;;17.26;42.81
59493;BME280;45497;43.996;22.876;2022-10-31T02:49:57;101587.97;;;17.26;42.63
59493;BME280;45497;43.996;22.876;2022-10-31T02:52:29;101594.75;;;17.22;42.71
59493;BME280;45497;43.996;22.876;2022-10-31T02:54:55;101589.78;;;17.18;42.69
59493;BME280;45497;43.996;22.876;2022-10-31T02:57:33;101592.50;;;17.25;42.64
59493;BME280;45497;43.996;22.876;2022-10-31T03:00:07;101594.69;;;17.15;42.78
59493;BME280;45497;43.996;22.876;2022-10-31T03:15:44;101606.38;;;17.07;43.26
59493;BME280;45497;43.996;22.876;2022-10-31T03:18:23;101604.13;;;17.11;43.15
59493;BME280;45497;43.996;22.876;2022-10-31T03:20:56;101621.66;;;17.13;43.13
59493;BME280;45497;43.996;22.876;2022-10-31T03:23:25;101619.63;;;17.15;43.01
59493;BME280;45497;43.996;22.876;2022-10-31T03:25:53;101619.44;;;17.17;42.85
59493;BME280;45497;43.996;22.876;2022-10-31T03:28:25;101620.75;;;17.28;42.64
59493;BME280;45497;43.996;22.876;2022-10-31T03:30:53;101619.34;;;17.32;42.43
59493;BME280;45497;43.996;22.876;2022-10-31T03:33:26;101612.53;;;17.29;42.37
59493;BME280;45497;43.996;22.876;2022-10-31T03:35:55;101619.34;;;17.32;42.42
59493;BME280;45497;43.996;22.876;2022-10-31T03:38:23;101621.66;;;17.35;42.32
59493;BME280;45497;43.996;22.876;2022-10-31T03:40:51;101611.81;;;17.42;42.07
59493;BME280;45497;43.996;22.876;2022-10-31T03:43:22;101625.28;;;17.49;41.88
59493;BME280;45497;43.996;22.876;2022-10-31T03:45:49;101619.94;;;17.49;42.01
59493;BME280;45497;43.996;22.876;2022-10-31T03:48:18;101623.03;;;17.52;41.82
59493;BME280;45497;43.996;22.876;2022-10-31T03:54:19;101629.41;;;17.51;42.02
59493;BME280;45497;43.996;22.876;2022-10-31T03:59:02;101620.75;;;17.49;41.81
59493;BME280;45497;43.996;22.876;2022-10-31T04:01:31;101624.44;;;17.48;41.90
59493;BME280;45497;43.996;22.876;2022-10-31T04:04:00;101619.94;;;17.49;41.77
59493;BME280;45497;43.996;22.876;2022-10-31T04:06:27;101623.44;;;17.49;41.76
59493;BME280;45497;43.996;22.876;2022-10-31T04:08:58;101620.44;;;17.37;42.10
59493;BME280;45497;43.996;22.876;2022-10-31T04:11:29;101618.16;;;17.34;42.38
59493;BME280;45497;43.996;22.876;2022-10-31T04:13:57;101619.22;;;17.40;42.29
59493;BME280;45497;43.996;22.876;2022-10-31T04:16:26;101619.47;;;17.45;42.16
59493;BME280;45497;43.996;22.876;2022-10-31T04:18:52;101615.81;;;17.53;41.88
59493;BME280;45497;43.996;22.876;2022-10-31T04:21:18;101620.41;;;17.59;41.52
59493;BME280;45497;43.996;22.876;2022-10-31T04:23:43;101625.38;;;17.62;41.60
59493;BME280;45497;43.996;22.876;2022-10-31T04:26:12;101622.69;;;17.62;41.61
59493;BME280;45497;43.996;22.876;2022-10-31T04:28:38;101622.06;;;17.60;41.65
59493;BME280;45497;43.996;22.876;2022-10-31T04:31:04;101621.19;;;17.53;41.76
59493;BME280;45497;43.996;22.876;2022-10-31T04:33:29;101621.81;;;17.55;41.81
59493;BME280;45497;43.996;22.876;2022-10-31T04:35:55;101620.38;;;17.52;41.82
59493;BME280;45497;43.996;22.876;2022-10-31T04:38:21;101623.88;;;17.53;41.73
59493;BME280;45497;43.996;22.876;2022-10-31T04:40:46;101616.81;;;17.45;41.78
59493;BME280;45497;43.996;22.876;2022-10-31T04:43:12;101622.16;;;17.45;41.71
59493;BME280;45497;43.996;22.876;2022-10-31T04:45:38;101623.81;;;17.46;41.62
59493;BME280;45497;43.996;22.876;2022-10-31T04:48:03;101617.19;;;17.42;41.77
59493;BME280;45497;43.996;22.876;2022-10-31T04:50:29;101612.19;;;17.39;41.83
59493;BME280;45497;43.996;22.876;2022-10-31T04:52:55;101622.75;;;17.19;42.49
59493;BME280;45497;43.996;22.876;2022-10-31T04:55:20;101625.22;;;17.20;42.37
59493;BME280;45497;43.996;22.876;2022-10-31T04:57:47;101624.59;;;17.18;42.18
59493;BME280;45497;43.996;22.876;2022-10-31T05:00:15;101629.59;;;17.22;42.19
59493;BME280;45497;43.996;22.876;2022-10-31T05:02:51;101620.06;;;17.19;42.08
59493;BME280;45497;43.996;22.876;2022-10-31T05:05:19;101637.81;;;17.20;42.11
59493;BME280;45497;43.996;22.876;2022-10-31T05:07:46;101631.16;;;17.16;42.16
59493;BME280;45497;43.996;22.876;2022-10-31T05:10:19;101629.63;;;17.07;42.24
59493;BME280;45497;43.996;22.876;2022-10-31T05:12:57;101637.22;;;17.03;42.64
59493;BME280;45497;43.996;22.876;2022-10-31T05:15:27;101638.16;;;16.95;42.73
59493;BME280;45497;43.996;22.876;2022-10-31T05:17:54;101624.97;;;16.94;42.87
59493;BME280;45497;43.996;22.876;2022-10-31T05:20:21;101634.94;;;17.00;42.62
59493;BME280;45497;43.996;22.876;2022-10-31T05:22:55;101638.97;;;16.96;42.88
59493;BME280;45497;43.996;22.876;2022-10-31T05:25:23;101640.66;;;16.97;42.77
59493;BME280;45497;43.996;22.876;2022-10-31T05:27:50;101649.50;;;16.97;42.83
59493;BME280;45497;43.996;22.876;2022-10-31T05:30:20;101647.28;;;17.01;42.79
59493;BME280;45497;43.996;22.876;2022-10-31T05:32:49;101646.28;;;17.02;42.79
59493;BME280;45497;43.996;22.876;2022-10-31T05:35:30;101650.88;;;17.08;42.61
59493;BME280;45497;43.996;22.876;2022-10-31T05:37:56;101656.41;;;17.07;42.63
59493;BME280;45497;43.996;22.876;2022-10-31T05:40:26;101661.13;;;17.05;42.68
59493;BME280;45497;43.996;22.876;2022-10-31T05:42:53;101657.19;;;17.00;42.70
59493;BME280;45497;43.996;22.876;2022-10-31T05:45:20;101656.81;;;17.04;42.83
59493;BME280;45497;43.996;22.876;2022-10-31T05:47:57;101669.25;;;17.11;42.63
59493;BME280;45497;43.996;22.876;2022-10-31T05:50:23;101674.22;;;17.14;42.62
59493;BME280;45497;43.996;22.876;2022-10-31T05:53:04;101672.38;;;17.15;42.58
59493;BME280;45497;43.996;22.876;2022-10-31T05:55:30;101673.28;;;17.22;42.45
59493;BME280;45497;43.996;22.876;2022-10-31T05:57:56;101671.03;;;17.26;42.41
59493;BME280;45497;43.996;22.876;2022-10-31T06:00:23;101679.34;;;17.31;42.37
59493;BME280;45497;43.996;22.876;2022-10-31T06:02:49;101671.88;;;17.26;42.43
59493;BME280;45497;43.996;22.876;2022-10-31T06:05:15;101670.88;;;17.12;43.16
59493;BME280;45497;43.996;22.876;2022-10-31T06:07:41;101672.47;;;17.07;43.58
59493;BME280;45497;43.996;22.876;2022-10-31T06:10:07;101678.06;;;17.05;43.70
59493;BME280;45497;43.996;22.876;2022-10-31T06:12:34;101679.50;;;17.08;43.84
59493;BME280;45497;43.996;22.876;2022-10-31T06:15:04;101672.00;;;17.18;43.65
59493;BME280;45497;43.996;22.876;2022-10-31T06:17:37;101679.78;;;17.34;43.26
59493;BME280;45497;43.996;22.876;2022-10-31T06:20:04;101683.03;;;17.51;42.87
59493;BME280;45497;43.996;22.876;2022-10-31T06:22:30;101686.84;;;17.64;42.74
59493;BME280;45497;43.996;22.876;2022-10-31T06:24:55;101680.34;;;17.73;42.50
59493;BME280;45497;43.996;22.876;2022-10-31T06:27:25;101684.72;;;17.81;42.31
59493;BME280;45497;43.996;22.876;2022-10-31T06:29:53;101685.75;;;17.80;42.17
59493;BME280;45497;43.996;22.876;2022-10-31T06:32:19;101683.72;;;17.82;42.44
59493;BME280;45497;43.996;22.876;2022-10-31T06:34:45;101693.13;;;17.92;42.13
59493;BME280;45497;43.996;22.876;2022-10-31T06:37:15;101691.69;;;17.96;42.11
59493;BME280;45497;43.996;22.876;2022-10-31T06:39:41;101697.31;;;18.02;41.77
59493;BME280;45497;43.996;22.876;2022-10-31T06:42:06;101703.75;;;18.07;41.86
59493;BME280;45497;43.996;22.876;2022-10-31T06:44:32;101705.66;;;18.13;42.01
59493;BME280;45497;43.996;22.876;2022-10-31T06:46:57;101706.28;;;18.15;42.19
59493;BME280;45497;43.996;22.876;2022-10-31T06:49:23;101713.09;;;18.18;42.29
59493;BME280;45497;43.996;22.876;2022-10-31T06:51:49;101711.84;;;18.14;44.67
59493;BME280;45497;43.996;22.876;2022-10-31T06:54:15;101711.97;;;18.06;46.16
59493;BME280;45497;43.996;22.876;2022-10-31T06:56:41;101709.09;;;18.07;46.88
59493;BME280;45497;43.996;22.876;2022-10-31T06:59:07;101708.78;;;18.17;46.70
59493;BME280;45497;43.996;22.876;2022-10-31T07:01:32;101710.72;;;18.30;46.75
59493;BME280;45497;43.996;22.876;2022-10-31T07:03:58;101712.66;;;18.43;46.20
59493;BME280;45497;43.996;22.876;2022-10-31T07:06:24;101701.97;;;18.49;45.83
59493;BME280;45497;43.996;22.876;2022-10-31T07:08:49;101699.59;;;18.40;45.76
59493;BME280;45497;43.996;22.876;2022-10-31T07:11:16;101689.91;;;18.39;45.44
59493;BME280;45497;43.996;22.876;2022-10-31T07:13:42;101688.63;;;18.34;44.90
59493;BME280;45497;43.996;22.876;2022-10-31T07:16:14;101684.13;;;18.42;44.42
59493;BME280;45497;43.996;22.876;2022-10-31T07:18:41;101678.00;;;18.54;44.09
59493;BME280;45497;43.996;22.876;2022-10-31T07:21:07;101692.38;;;18.75;43.50
59493;BME280;45497;43.996;22.876;2022-10-31T07:23:32;101691.22;;;18.91;43.04
59493;BME280;45497;43.996;22.876;2022-10-31T07:25:59;101689.13;;;18.86;43.07
59493;BME280;45497;43.996;22.876;2022-10-31T07:28:26;101690.16;;;18.92;42.79
59493;BME280;45497;43.996;22.876;2022-10-31T07:30:52;101692.25;;;18.97;42.86
59493;BME280;45497;43.996;22.876;2022-10-31T07:33:18;101687.34;;;19.07;42.61
59493;BME280;45497;43.996;22.876;2022-10-31T07:35:44;101688.22;;;19.27;42.25
59493;BME280;45497;43.996;22.876;2022-10-31T07:38:11;101690.50;;;19.44;42.06
59493;BME280;45497;43.996;22.876;2022-10-31T07:40:37;101689.06;;;19.55;42.17
59493;BME280;45497;43.996;22.876;2022-10-31T07:43:04;101682.44;;;19.64;41.55
59493;BME280;45497;43.996;22.876;2022-10-31T07:45:30;101679.41;;;19.74;41.57
59493;BME280;45497;43.996;22.876;2022-10-31T07:47:55;101679.56;;;19.72;41.72
59493;BME280;45497;43.996;22.876;2022-10-31T07:50:26;101681.84;;;19.82;41.59
59493;BME280;45497;43.996;22.876;2022-10-31T07:55:28;101687.25;;;19.89;41.63
59493;BME280;45497;43.996;22.876;2022-10-31T08:00:22;101691.13;;;20.19;40.82
59493;BME280;45497;43.996;22.876;2022-10-31T08:02:48;101691.69;;;20.48;40.33
59493;BME280;45497;43.996;22.876;2022-10-31T08:05:13;101682.94;;;20.59;40.03
59493;BME280;45497;43.996;22.876;2022-10-31T08:07:39;101690.81;;;20.68;39.86
59493;BME280;45497;43.996;22.876;2022-10-31T08:10:05;101685.81;;;20.78;39.67
59493;BME280;45497;43.996;22.876;2022-10-31T08:12:30;101695.63;;;21.04;39.05
59493;BME280;45497;43.996;22.876;2022-10-31T08:14:56;101684.53;;;20.87;39.44
59493;BME280;45497;43.996;22.876;2022-10-31T08:17:21;101688.13;;;21.13;38.92
59493;BME280;45497;43.996;22.876;2022-10-31T08:19:48;101688.75;;;21.40;38.44
59493;BME280;45497;43.996;22.876;2022-10-31T08:22:13;101682.84;;;21.56;38.17
59493;BME280;45497;43.996;22.876;2022-10-31T08:24:41;101686.34;;;21.64;37.73
59493;BME280;45497;43.996;22.876;2022-10-31T08:27:07;101677.97;;;21.72;37.71
59493;BME280;45497;43.996;22.876;2022-10-31T08:29:32;101677.63;;;21.87;37.44
59493;BME280;45497;43.996;22.876;2022-10-31T08:31:58;101678.56;;;21.74;37.92
59493;BME280;45497;43.996;22.876;2022-10-31T08:34:24;101676.25;;;21.77;37.63
59493;BME280;45497;43.996;22.876;2022-10-31T08:36:49;101674.66;;;21.95;37.48
59493;BME280;45497;43.996;22.876;2022-10-31T08:39:15;101659.50;;;22.12;37.27
59493;BME280;45497;43.996;22.876;2022-10-31T08:41:42;101658.09;;;22.10;37.07
59493;BME280;45497;43.996;22.876;2022-10-31T08:44:08;101663.78;;;22.02;37.48
59493;BME280;45497;43.996;22.876;2022-10-31T08:46:33;101663.50;;;22.10;37.56
59493;BME280;45497;43.996;22.876;2022-10-31T08:48:59;101657.41;;;21.96;37.87
59493;BME280;45497;43.996;22.876;2022-10-31T08:51:27;101659.44;;;22.19;37.28
59493;BME280;45497;43.996;22.876;2022-10-31T08:53:53;101662.31;;;22.24;37.33
59493;BME280;45497;43.996;22.876;2022-10-31T08:56:19;101668.53;;;22.43;36.50
59493;BME280;45497;43.996;22.876;2022-10-31T08:58:44;101660.16;;;22.51;36.44
59493;BME280;45497;43.996;22.876;2022-10-31T09:01:10;101662.00;;;22.69;36.27
59493;BME280;45497;43.996;22.876;2022-10-31T09:03:35;101668.78;;;22.60;36.75
59493;BME280;45497;43.996;22.876;2022-10-31T09:06:02;101668.81;;;22.72;36.21
59493;BME280;45497;43.996;22.876;2022-10-31T09:08:32;101663.66;;;23.01;35.73
59493;BME280;45497;43.996;22.876;2022-10-31T09:10:58;101666.84;;;22.79;36.13
59493;BME280;45497;43.996;22.876;2022-10-31T09:13:23;101662.41;;;22.55;37.03
59493;BME280;45497;43.996;22.876;2022-10-31T09:15:49;101664.22;;;22.42;38.22
59493;BME280;45497;43.996;22.876;2022-10-31T09:18:19;101655.50;;;22.40;38.12
59493;BME280;45497;43.996;22.876;2022-10-31T09:20:46;101660.00;;;22.46;38.12
59493;BME280;45497;43.996;22.876;2022-10-31T09:23:17;101662.09;;;22.44;38.46
59493;BME280;45497;43.996;22.876;2022-10-31T09:25:44;101657.66;;;22.50;38.28
59493;BME280;45497;43.996;22.876;2022-10-31T09:28:13;101660.44;;;22.62;38.16
59493;BME280;45497;43.996;22.876;2022-10-31T09:30:39;101665.84;;;22.92;37.42
59493;BME280;45497;43.996;22.876;2022-10-31T09:33:12;101671.78;;;23.31;36.41
59493;BME280;45497;43.996;22.876;2022-10-31T09:35:39;101667.97;;;23.20;36.43
59493;BME280;45497;43.996;22.876;2022-10-31T09:38:08;101659.25;;;22.88;37.51
59493;BME280;45497;43.996;22.876;2022-10-31T09:40:42;101671.72;;;22.89;37.79
59493;BME280;45497;43.996;22.876;2022-10-31T09:49:17;101650.03;;;23.73;35.32
59493;BME280;45497;43.996;22.876;2022-10-31T09:52:00;101655.69;;;23.48;36.13
59493;BME280;45497;43.996;22.876;2022-10-31T09:54:40;101651.09;;;23.60;35.58
59493;BME280;45497;43.996;22.876;2022-10-31T09:57:12;101645.56;;;23.67;35.70
59493;BME280;45497;43.996;22.876;2022-10-31T09:59:44;101647.50;;;23.90;35.24
59493;BME280;45497;43.996;22.876;2022-10-31T10:02:22;101648.66;;;23.94;35.10
59493;BME280;45497;43.996;22.876;2022-10-31T10:05:01;101646.66;;;23.66;36.50
59493;BME280;45497;43.996;22.876;2022-10-31T10:09:59;101645.56;;;23.43;38.65
59493;BME280;45497;43.996;22.876;2022-10-31T10:28:41;101606.84;;;23.78;36.97
59493;BME280;45497;43.996;22.876;2022-10-31T10:34:20;101610.97;;;24.57;33.37
59493;BME280;45497;43.996;22.876;2022-10-31T10:42:01;101605.72;;;24.96;32.63
59493;BME280;45497;43.996;22.876;2022-10-31T10:44:51;101609.75;;;24.65;34.47
59493;BME280;45497;43.996;22.876;2022-10-31T10:47:43;101604.25;;;24.59;35.08
59493;BME280;45497;43.996;22.876;2022-10-31T10:50:36;101605.84;;;24.72;34.02
59493;BME280;45497;43.996;22.876;2022-10-31T10:56:13;101597.63;;;25.30;31.62
59493;BME280;45497;43.996;22.876;2022-10-31T10:58:41;101603.53;;;25.44;31.44
59493;BME280;45497;43.996;22.876;2022-10-31T11:01:14;101600.50;;;25.57;31.05
59493;BME280;45497;43.996;22.876;2022-10-31T11:03:41;101601.22;;;25.52;30.54
59493;BME280;45497;43.996;22.876;2022-10-31T11:06:22;101593.81;;;25.65;30.30
59493;BME280;45497;43.996;22.876;2022-10-31T11:08:52;101593.69;;;25.93;30.19
59493;BME280;45497;43.996;22.876;2022-10-31T11:11:29;101584.72;;;25.93;30.40
59493;BME280;45497;43.996;22.876;2022-10-31T11:14:22;101589.28;;;25.70;31.41
59493;BME280;45497;43.996;22.876;2022-10-31T11:17:06;101585.91;;;25.63;31.77
59493;BME280;45497;43.996;22.876;2022-10-31T11:19:33;101584.06;;;25.47;32.53
59493;BME280;45497;43.996;22.876;2022-10-31T11:22:07;101574.91;;;25.53;32.36
59493;BME280;45497;43.996;22.876;2022-10-31T11:24:39;101581.50;;;25.57;32.55
59493;BME280;45497;43.996;22.876;2022-10-31T11:27:23;101574.88;;;25.70;31.94
59493;BME280;45497;43.996;22.876;2022-10-31T11:29:49;101570.34;;;25.75;32.37
59493;BME280;45497;43.996;22.876;2022-10-31T11:32:43;101573.28;;;25.52;34.08
59493;BME280;45497;43.996;22.876;2022-10-31T11:35:14;101569.78;;;25.56;33.47
59493;BME280;45497;43.996;22.876;2022-10-31T11:37:44;101558.50;;;25.65;32.76
59493;BME280;45497;43.996;22.876;2022-10-31T11:40:25;101556.53;;;25.99;31.33
59493;BME280;45497;43.996;22.876;2022-10-31T11:42:54;101551.75;;;26.06;31.18
59493;BME280;45497;43.996;22.876;2022-10-31T11:47:50;101544.13;;;26.30;30.94
59493;BME280;45497;43.996;22.876;2022-10-31T11:50:37;101545.66;;;26.21;30.74
59493;BME280;45497;43.996;22.876;2022-10-31T11:53:16;101545.53;;;26.33;30.50
59493;BME280;45497;43.996;22.876;2022-10-31T11:55:42;101547.63;;;26.26;30.53
59493;BME280;45497;43.996;22.876;2022-10-31T11:58:23;101539.47;;;26.53;30.05
59493;BME280;45497;43.996;22.876;2022-10-31T12:00:55;101538.69;;;26.58;30.14
59493;BME280;45497;43.996;22.876;2022-10-31T12:06:02;101537.13;;;26.12;32.60
59493;BME280;45497;43.996;22.876;2022-10-31T12:08:35;101534.13;;;26.36;30.53
59493;BME280;45497;43.996;22.876;2022-10-31T12:14:18;101528.63;;;26.85;29.17
59493;BME280;45497;43.996;22.876;2022-10-31T12:16:59;101520.94;;;26.77;29.90
59493;BME280;45497;43.996;22.876;2022-10-31T12:19:44;101515.44;;;26.45;30.48
59493;BME280;45497;43.996;22.876;2022-10-31T12:31:12;101507.69;;;26.59;30.20
59493;BME280;45497;43.996;22.876;2022-10-31T12:33:53;101508.59;;;26.97;29.14
59493;BME280;45497;43.996;22.876;2022-10-31T12:55:53;101493.59;;;27.26;27.97
59493;BME280;45497;43.996;22.876;2022-10-31T12:58:50;101493.16;;;27.07;29.33
59493;BME280;45497;43.996;22.876;2022-10-31T13:01:30;101492.59;;;27.05;29.19
59493;BME280;45497;43.996;22.876;2022-10-31T13:04:01;101495.31;;;27.05;29.06
59493;BME280;45497;43.996;22.876;2022-10-31T13:06:41;101498.41;;;27.19;28.09
59493;BME280;45497;43.996;22.876;2022-10-31T13:09:13;101495.72;;;27.24;28.86
59493;BME280;45497;43.996;22.876;2022-10-31T13:11:56;101488.72;;;26.96;30.18
59493;BME280;45497;43.996;22.876;2022-10-31T13:14:43;101494.22;;;27.01;29.89
59493;BME280;45497;43.996;22.876;2022-10-31T13:17:23;101500.16;;;26.98;30.12
59493;BME280;45497;43.996;22.876;2022-10-31T13:19:52;101492.22;;;26.92;30.35
59493;BME280;45497;43.996;22.876;2022-10-31T13:22:26;101490.97;;;26.72;31.80
59493;BME280;45497;43.996;22.876;2022-10-31T13:24:57;101491.88;;;26.78;31.90
59493;BME280;45497;43.996;22.876;2022-10-31T13:27:59;101487.34;;;26.94;31.18
59493;BME280;45497;43.996;22.876;2022-10-31T13:30:26;101492.47;;;26.85;30.91
59493;BME280;45497;43.996;22.876;2022-10-31T13:33:03;101491.38;;;26.86;30.46
59493;BME280;45497;43.996;22.876;2022-10-31T13:35:55;101489.63;;;27.07;29.88
59493;BME280;45497;43.996;22.876;2022-10-31T13:38:36;101492.00;;;26.98;30.53
59493;BME280;45497;43.996;22.876;2022-10-31T13:44:17;101484.00;;;26.81;31.52
59493;BME280;45497;43.996;22.876;2022-10-31T13:46:44;101489.34;;;26.71;31.81
59493;BME280;45497;43.996;22.876;2022-10-31T13:49:26;101491.28;;;26.76;31.43
59493;BME280;45497;43.996;22.876;2022-10-31T13:59:56;101486.59;;;26.66;32.51
59493;BME280;45497;43.996;22.876;2022-10-31T14:02:34;101485.53;;;26.72;31.79
59493;BME280;45497;43.996;22.876;2022-10-31T14:05:06;101490.50;;;26.80;31.69
59493;BME280;45497;43.996;22.876;2022-10-31T14:07:45;101484.00;;;26.86;30.65
59493;BME280;45497;43.996;22.876;2022-10-31T14:10:35;101492.22;;;26.92;29.96
59493;BME280;45497;43.996;22.876;2022-10-31T14:13:32;101484.91;;;26.97;29.54
59493;BME280;45497;43.996;22.876;2022-10-31T14:16:06;101481.97;;;27.04;29.33
59493;BME280;45497;43.996;22.876;2022-10-31T14:18:46;101488.97;;;26.95;29.92
59493;BME280;45497;43.996;22.876;2022-10-31T14:21:36;101487.75;;;26.75;30.50
59493;BME280;45497;43.996;22.876;2022-10-31T14:24:30;101491.50;;;26.69;30.59
59493;BME280;45497;43.996;22.876;2022-10-31T14:27:44;101495.31;;;26.68;30.65
59493;BME280;45497;43.996;22.876;2022-10-31T14:29:44;101489.25;;;26.61;30.77
59493;BME280;45497;43.996;22.876;2022-10-31T14:34:51;101491.53;;;26.47;31.50
59493;BME280;45497;43.996;22.876;2022-10-31T14:51:22;101500.13;;;26.33;31.95
59493;BME280;45497;43.996;22.876;2022-10-31T14:53:59;101498.53;;;26.38;31.40
59493;BME280;45497;43.996;22.876;2022-10-31T14:56:30;101493.97;;;26.43;30.73
59493;BME280;45497;43.996;22.876;2022-10-31T14:59:03;101499.63;;;26.37;30.93
59493;BME280;45497;43.996;22.876;2022-10-31T15:01:31;101506.06;;;26.30;30.60
59493;BME280;45497;43.996;22.876;2022-10-31T15:04:11;101499.06;;;26.35;30.17
59493;BME280;45497;43.996;22.876;2022-10-31T15:06:42;101499.69;;;26.42;30.00
59493;BME280;45497;43.996;22.876;2022-10-31T15:09:31;101493.69;;;26.45;29.55
59493;BME280;45497;43.996;22.876;2022-10-31T15:12:14;101504.88;;;26.48;29.42
59493;BME280;45497;43.996;22.876;2022-10-31T15:14:42;101501.91;;;26.50;29.29
59493;BME280;45497;43.996;22.876;2022-10-31T15:17:10;101507.03;;;26.46;28.79